Time;durP1;ratioP1;P1;durP2;ratioP2;P2;SDS_P1;SDS_P2;PMS_P1;PMS_P2;Temp;Humidity;BMP_temperature;BMP_pressure;BME280_temperature;BME280_humidity;BME280_pressure;Samples;Min_cycle;Max_cycle;Signal;HPM_P1;HPM_P2
2021/12/08 00:00:21;;;;;;;5.90;1.88;;;;;;;;;;5027993;28;20045;-71
2021/12/08 00:02:47;;;;;;;5.25;1.27;;;;;;;;;;5010075;28;20040;-72
2021/12/08 00:05:14;;;;;;;5.78;2.03;;;;;;;;;;5022021;28;20034;-71
2021/12/08 00:07:40;;;;;;;7.97;2.80;;;;;;;;;;5026774;28;20044;-72
2021/12/08 00:10:28;;;;;;;6.07;1.48;;;;;;;;;;5021873;28;20038;-71
2021/12/08 00:13:09;;;;;;;4.40;1.58;;;;;;;;;;5023556;28;20034;-71
2021/12/08 00:15:35;;;;;;;8.43;1.80;;;;;;;;;;5021604;28;20524;-71
2021/12/08 00:18:03;;;;;;;4.85;1.92;;;;;;;;;;5021287;28;20411;-71
2021/12/08 00:20:31;;;;;;;9.32;1.90;;;;;;;;;;5009899;28;20025;-71
2021/12/08 00:22:57;;;;;;;5.88;1.73;;;;;;;;;;5027528;28;20068;-71
2021/12/08 00:25:23;;;;;;;6.45;1.73;;;;;;;;;;5022687;28;20040;-71
2021/12/08 00:27:49;;;;;;;3.97;1.33;;;;;;;;;;5027078;28;20033;-71
2021/12/08 00:30:16;;;;;;;6.45;1.70;;;;;;;;;;5026127;28;20086;-71
2021/12/08 00:32:41;;;;;;;4.90;1.67;;;;;;;;;;5025448;28;20029;-71
2021/12/08 00:35:07;;;;;;;8.32;1.85;;;;;;;;;;5024179;28;20037;-71
2021/12/08 00:37:33;;;;;;;5.85;1.63;;;;;;;;;;5009024;28;20037;-71
2021/12/08 00:39:59;;;;;;;3.45;1.52;;;;;;;;;;5022365;28;20044;-71
2021/12/08 00:42:25;;;;;;;5.65;1.48;;;;;;;;;;5008317;28;20041;-71
2021/12/08 00:44:50;;;;;;;5.80;1.40;;;;;;;;;;5026527;28;20052;-71
2021/12/08 00:47:17;;;;;;;7.07;1.55;;;;;;;;;;5022620;28;20577;-71
2021/12/08 00:49:44;;;;;;;4.05;1.40;;;;;;;;;;5016531;28;20030;-71
2021/12/08 00:52:10;;;;;;;4.22;1.30;;;;;;;;;;5023984;28;20514;-71
2021/12/08 00:54:35;;;;;;;8.45;1.63;;;;;;;;;;5020944;28;20038;-71
2021/12/08 00:57:01;;;;;;;3.55;1.10;;;;;;;;;;5021656;28;20044;-71
2021/12/08 00:59:26;;;;;;;2.58;1.23;;;;;;;;;;5029566;28;20025;-71
2021/12/08 01:01:52;;;;;;;4.00;1.30;;;;;;;;;;5027798;28;20037;-72
2021/12/08 01:04:17;;;;;;;7.72;1.67;;;;;;;;;;5027625;28;20044;-72
2021/12/08 01:06:43;;;;;;;3.88;1.20;;;;;;;;;;5030437;28;20048;-71
2021/12/08 01:09:12;;;;;;;5.57;1.25;;;;;;;;;;5030735;28;20124;-71
2021/12/08 01:11:38;;;;;;;5.57;1.20;;;;;;;;;;5030017;28;20052;-71
2021/12/08 01:14:04;;;;;;;1.65;1.00;;;;;;;;;;5030737;28;20634;-71
2021/12/08 01:16:30;;;;;;;7.35;1.20;;;;;;;;;;5030893;28;20045;-71
2021/12/08 01:18:55;;;;;;;4.45;1.33;;;;;;;;;;5032003;28;20038;-71
2021/12/08 01:21:21;;;;;;;6.20;1.65;;;;;;;;;;5031732;28;20038;-71
2021/12/08 01:23:47;;;;;;;5.57;1.38;;;;;;;;;;5029928;28;20032;-72
2021/12/08 01:26:12;;;;;;;7.30;1.52;;;;;;;;;;5027380;28;20041;-72
2021/12/08 01:28:38;;;;;;;4.95;1.30;;;;;;;;;;5029655;28;20574;-71
2021/12/08 01:31:05;;;;;;;6.35;1.30;;;;;;;;;;5031617;28;20404;-71
2021/12/08 01:33:31;;;;;;;6.50;1.27;;;;;;;;;;5022026;28;20673;-71
2021/12/08 01:35:57;;;;;;;4.05;1.35;;;;;;;;;;5030705;28;20029;-71
2021/12/08 01:38:23;;;;;;;3.95;1.30;;;;;;;;;;5030258;28;20020;-71
2021/12/08 01:40:48;;;;;;;4.65;1.00;;;;;;;;;;5028843;28;20034;-71
2021/12/08 01:43:23;;;;;;;3.38;1.20;;;;;;;;;;5015245;28;20037;-71
2021/12/08 01:46:00;;;;;;;7.03;1.17;;;;;;;;;;5014266;28;20083;-72
2021/12/08 01:48:29;;;;;;;4.13;1.20;;;;;;;;;;5001158;28;20034;-71
2021/12/08 01:51:00;;;;;;;4.65;1.35;;;;;;;;;;5027059;28;20029;-71
2021/12/08 01:53:25;;;;;;;5.47;1.25;;;;;;;;;;5029675;28;20022;-71
2021/12/08 01:55:51;;;;;;;6.50;1.20;;;;;;;;;;5025819;28;20040;-71
2021/12/08 01:58:17;;;;;;;3.53;0.88;;;;;;;;;;5021705;28;20523;-71
2021/12/08 02:00:47;;;;;;;3.08;0.95;;;;;;;;;;5031595;28;20045;-71
2021/12/08 02:03:15;;;;;;;7.35;1.23;;;;;;;;;;5030032;28;20396;-71
2021/12/08 02:05:41;;;;;;;7.32;1.33;;;;;;;;;;5029141;28;20495;-71
2021/12/08 02:08:06;;;;;;;3.80;1.08;;;;;;;;;;5031652;28;20065;-71
2021/12/08 02:10:32;;;;;;;5.07;1.40;;;;;;;;;;5027359;28;20033;-71
2021/12/08 02:12:58;;;;;;;4.22;1.20;;;;;;;;;;5029308;28;20407;-71
2021/12/08 02:15:23;;;;;;;2.75;1.00;;;;;;;;;;5007556;28;20053;-71
2021/12/08 02:17:52;;;;;;;5.85;1.08;;;;;;;;;;5016405;28;20075;-71
2021/12/08 02:20:20;;;;;;;4.00;0.80;;;;;;;;;;5031414;28;20491;-71
2021/12/08 02:22:45;;;;;;;2.17;0.90;;;;;;;;;;5029128;28;20121;-71
2021/12/08 02:25:16;;;;;;;8.15;1.27;;;;;;;;;;5027506;28;20495;-71
2021/12/08 02:27:42;;;;;;;5.50;1.10;;;;;;;;;;5021429;28;20518;-71
2021/12/08 02:30:25;;;;;;;4.57;0.98;;;;;;;;;;5026527;28;20034;-71
2021/12/08 02:49:22;;;;;;;9.45;1.45;;;;;;;;;;4999784;28;19936;-71
2021/12/08 02:51:50;;;;;;;15.38;1.55;;;;;;;;;;5030578;28;20052;-71
2021/12/08 02:54:15;;;;;;;9.90;1.45;;;;;;;;;;5029969;28;20060;-71
2021/12/08 02:56:41;;;;;;;7.18;1.10;;;;;;;;;;5031676;28;20112;-71
2021/12/08 02:59:07;;;;;;;7.43;1.50;;;;;;;;;;5012486;28;20041;-71
2021/12/08 03:01:34;;;;;;;5.50;1.50;;;;;;;;;;5030586;28;20045;-71
2021/12/08 03:03:59;;;;;;;5.93;1.45;;;;;;;;;;5027983;28;20033;-71
2021/12/08 03:06:25;;;;;;;4.82;1.48;;;;;;;;;;5030943;28;20048;-71
2021/12/08 03:08:51;;;;;;;9.18;1.52;;;;;;;;;;5031557;28;20041;-71
2021/12/08 03:11:16;;;;;;;6.38;1.50;;;;;;;;;;5013612;28;21137;-71
2021/12/08 03:13:56;;;;;;;7.35;1.10;;;;;;;;;;5031488;28;20041;-71
2021/12/08 03:16:22;;;;;;;7.53;1.70;;;;;;;;;;5029053;28;20121;-71
2021/12/08 03:18:47;;;;;;;6.50;1.40;;;;;;;;;;5025927;28;20069;-71
2021/12/08 03:21:13;;;;;;;9.80;1.67;;;;;;;;;;5011175;28;20045;-71
2021/12/08 03:23:56;;;;;;;4.53;1.33;;;;;;;;;;5031168;28;20022;-71
2021/12/08 03:26:28;;;;;;;3.17;1.63;;;;;;;;;;5020660;28;20046;-71
2021/12/08 03:29:14;;;;;;;9.35;2.00;;;;;;;;;;5025270;28;20108;-71
2021/12/08 03:31:42;;;;;;;9.55;1.38;;;;;;;;;;5007427;28;20127;-71
2021/12/08 03:34:08;;;;;;;5.63;1.75;;;;;;;;;;5029781;28;20037;-71
2021/12/08 03:36:34;;;;;;;2.33;1.30;;;;;;;;;;5029909;28;20530;-71
2021/12/08 03:39:01;;;;;;;7.50;1.25;;;;;;;;;;5029696;28;20033;-71
2021/12/08 03:41:31;;;;;;;6.40;1.27;;;;;;;;;;5013282;28;20576;-72
2021/12/08 03:43:57;;;;;;;3.75;1.27;;;;;;;;;;5029532;28;20077;-71
2021/12/08 03:46:26;;;;;;;5.63;1.45;;;;;;;;;;5029786;28;20109;-71
2021/12/08 03:48:52;;;;;;;1.52;0.77;;;;;;;;;;5007889;28;20030;-71
2021/12/08 03:51:19;;;;;;;2.45;0.70;;;;;;;;;;5029889;28;20045;-72
2021/12/08 03:53:45;;;;;;;3.15;1.27;;;;;;;;;;5021919;28;20051;-71
2021/12/08 03:56:10;;;;;;;4.18;1.08;;;;;;;;;;5021798;28;20515;-71
2021/12/08 03:58:36;;;;;;;5.03;1.10;;;;;;;;;;5030415;28;20076;-71
2021/12/08 04:01:04;;;;;;;3.10;0.82;;;;;;;;;;5010857;28;20029;-71
2021/12/08 04:03:32;;;;;;;3.75;1.00;;;;;;;;;;5005570;28;20037;-72
2021/12/08 04:06:02;;;;;;;5.95;0.90;;;;;;;;;;5030942;28;20056;-71
2021/12/08 04:08:46;;;;;;;3.40;0.85;;;;;;;;;;5012191;28;20723;-71
2021/12/08 04:11:12;;;;;;;6.10;1.20;;;;;;;;;;5026617;28;20095;-71
2021/12/08 04:13:42;;;;;;;7.95;1.02;;;;;;;;;;5030068;28;20109;-71
2021/12/08 04:16:11;;;;;;;6.07;1.20;;;;;;;;;;5027080;28;20045;-71
2021/12/08 04:18:37;;;;;;;5.22;1.05;;;;;;;;;;5028887;28;20064;-71
2021/12/08 04:21:05;;;;;;;3.45;1.10;;;;;;;;;;5024903;28;20022;-71
2021/12/08 04:23:35;;;;;;;0.50;0.38;;;;;;;;;;5027955;28;20430;-71
2021/12/08 04:26:04;;;;;;;5.60;1.33;;;;;;;;;;5017514;28;20037;-72
2021/12/08 04:28:32;;;;;;;3.65;0.93;;;;;;;;;;5028771;28;20041;-71
2021/12/08 04:31:04;;;;;;;7.05;1.17;;;;;;;;;;5025717;28;20057;-71
2021/12/08 04:33:32;;;;;;;4.28;0.88;;;;;;;;;;5026106;28;20052;-71
2021/12/08 04:35:58;;;;;;;7.47;1.20;;;;;;;;;;5029091;28;20022;-71
2021/12/08 04:38:32;;;;;;;2.30;0.70;;;;;;;;;;5025098;28;20072;-71
2021/12/08 04:41:05;;;;;;;5.15;0.93;;;;;;;;;;5012008;28;20108;-71
2021/12/08 04:43:40;;;;;;;6.20;1.13;;;;;;;;;;5028462;28;20041;-71
2021/12/08 04:51:43;;;;;;;4.78;1.45;;;;;;;;;;5022563;28;20037;-71
2021/12/08 05:03:19;;;;;;;2.13;0.77;;;;;;;;;;4988252;28;20433;-71
2021/12/08 05:06:05;;;;;;;3.28;0.80;;;;;;;;;;4987318;28;20089;-71
2021/12/08 05:08:43;;;;;;;3.00;1.50;;;;;;;;;;5000873;28;20056;-71
2021/12/08 05:11:13;;;;;;;3.20;0.93;;;;;;;;;;5022221;28;20057;-71
2021/12/08 05:13:40;;;;;;;2.67;0.80;;;;;;;;;;5026755;28;20120;-72
2021/12/08 05:16:06;;;;;;;0.98;0.63;;;;;;;;;;5028374;28;20133;-71
2021/12/08 05:18:36;;;;;;;5.60;1.27;;;;;;;;;;5025722;28;20041;-71
2021/12/08 05:21:10;;;;;;;4.10;0.90;;;;;;;;;;5009850;28;20032;-71
2021/12/08 05:23:43;;;;;;;4.13;1.05;;;;;;;;;;5029074;28;20021;-71
2021/12/08 05:26:28;;;;;;;11.65;1.20;;;;;;;;;;5021935;28;20038;-71
2021/12/08 05:28:56;;;;;;;5.88;0.60;;;;;;;;;;5027862;28;20032;-72
2021/12/08 05:31:26;;;;;;;3.38;1.02;;;;;;;;;;5030099;28;20116;-71
2021/12/08 05:33:52;;;;;;;3.65;0.77;;;;;;;;;;5029234;28;20099;-71
2021/12/08 05:36:19;;;;;;;5.13;1.00;;;;;;;;;;5026626;28;20038;-70
2021/12/08 05:38:45;;;;;;;1.50;0.75;;;;;;;;;;5029532;28;20060;-71
2021/12/08 05:41:17;;;;;;;4.32;1.00;;;;;;;;;;5008861;28;20111;-71
2021/12/08 05:43:44;;;;;;;2.72;0.90;;;;;;;;;;5026855;28;20033;-71
2021/12/08 05:46:11;;;;;;;2.97;0.93;;;;;;;;;;5012369;28;21124;-71
2021/12/08 05:48:36;;;;;;;5.80;0.88;;;;;;;;;;5032975;28;20188;-71
2021/12/08 05:51:25;;;;;;;4.20;1.23;;;;;;;;;;5028725;28;20573;-71
2021/12/08 05:53:53;;;;;;;4.22;1.65;;;;;;;;;;5029204;28;20082;-72
2021/12/08 05:56:20;;;;;;;7.10;1.27;;;;;;;;;;5032817;28;20032;-71
2021/12/08 05:58:48;;;;;;;6.35;1.10;;;;;;;;;;5030602;28;20407;-71
2021/12/08 06:01:26;;;;;;;5.65;1.05;;;;;;;;;;5031536;28;20033;-71
2021/12/08 06:03:52;;;;;;;5.03;1.20;;;;;;;;;;5033316;28;20029;-71
2021/12/08 06:06:20;;;;;;;6.95;1.10;;;;;;;;;;5014155;28;20029;-71
2021/12/08 06:08:46;;;;;;;5.95;1.40;;;;;;;;;;5032085;28;20025;-71
2021/12/08 06:11:13;;;;;;;4.30;0.90;;;;;;;;;;5025277;28;20129;-71
2021/12/08 06:13:40;;;;;;;4.07;0.90;;;;;;;;;;5019294;28;20565;-71
2021/12/08 06:16:07;;;;;;;2.58;1.23;;;;;;;;;;5026166;28;20200;-71
2021/12/08 06:18:38;;;;;;;4.50;1.13;;;;;;;;;;5018967;28;20111;-71
2021/12/08 06:21:09;;;;;;;3.60;0.93;;;;;;;;;;5031494;28;20495;-71
2021/12/08 06:23:36;;;;;;;3.60;0.70;;;;;;;;;;5015606;28;20029;-71
2021/12/08 06:26:03;;;;;;;6.20;1.05;;;;;;;;;;5031910;28;20061;-71
2021/12/08 06:28:28;;;;;;;9.85;2.08;;;;;;;;;;5032772;28;20507;-71
2021/12/08 06:30:54;;;;;;;7.43;1.20;;;;;;;;;;5013740;28;20036;-71
2021/12/08 06:33:20;;;;;;;5.90;2.03;;;;;;;;;;5030985;28;20033;-68
2021/12/08 06:35:52;;;;;;;7.25;1.95;;;;;;;;;;5018506;28;20029;-68
2021/12/08 06:38:19;;;;;;;17.55;5.20;;;;;;;;;;5023379;28;20534;-70
2021/12/08 06:41:04;;;;;;;12.95;3.42;;;;;;;;;;5027919;28;20029;-70
2021/12/08 06:43:37;;;;;;;10.90;2.60;;;;;;;;;;5022431;28;20088;-69
2021/12/08 06:46:04;;;;;;;11.65;2.88;;;;;;;;;;5022430;28;20592;-69
2021/12/08 06:48:37;;;;;;;9.55;2.67;;;;;;;;;;5013579;28;20407;-69
2021/12/08 06:51:08;;;;;;;11.88;2.83;;;;;;;;;;5012322;28;20079;-70
2021/12/08 06:53:35;;;;;;;11.07;3.60;;;;;;;;;;5030316;28;20095;-69
2021/12/08 06:56:17;;;;;;;9.18;2.20;;;;;;;;;;5030890;28;20046;-69
2021/12/08 06:58:47;;;;;;;3.60;1.60;;;;;;;;;;5030150;28;20068;-70
2021/12/08 07:01:34;;;;;;;4.65;1.42;;;;;;;;;;5031330;28;20578;-70
2021/12/08 07:07:01;;;;;;;8.50;2.70;;;;;;;;;;5031040;28;20029;-69
2021/12/08 07:09:44;;;;;;;8.20;1.88;;;;;;;;;;5023824;28;20037;-69
2021/12/08 07:12:24;;;;;;;;;;;;;;;;;;5024588;28;20116;-69
2021/12/08 07:14:55;;;;;;;4.28;0.82;;;;;;;;;;5029059;28;19921;-69
2021/12/08 07:17:24;;;;;;;4.65;1.40;;;;;;;;;;5028746;28;20037;-69
2021/12/08 07:20:03;;;;;;;9.85;1.85;;;;;;;;;;5022606;28;20033;-69
2021/12/08 07:22:33;;;;;;;4.20;0.90;;;;;;;;;;5030326;28;20052;-70
2021/12/08 07:25:00;;;;;;;3.58;0.95;;;;;;;;;;5029144;28;20037;-69
2021/12/08 07:27:30;;;;;;;2.45;0.68;;;;;;;;;;5027908;28;20060;-69
2021/12/08 07:30:02;;;;;;;4.88;0.75;;;;;;;;;;5027238;28;20108;-69
2021/12/08 07:32:34;;;;;;;3.72;0.95;;;;;;;;;;5029618;28;20033;-73
2021/12/08 07:35:06;;;;;;;4.40;1.00;;;;;;;;;;5010550;28;20052;-71
2021/12/08 07:37:34;;;;;;;3.63;0.93;;;;;;;;;;5027757;28;20037;-69
2021/12/08 07:40:23;;;;;;;1.00;0.90;;;;;;;;;;5022604;28;20042;-71
2021/12/08 07:42:52;;;;;;;0.98;0.65;;;;;;;;;;5021854;28;20056;-71
2021/12/08 07:45:24;;;;;;;5.45;2.13;;;;;;;;;;5014861;28;20649;-69
2021/12/08 07:47:53;;;;;;;1.47;1.00;;;;;;;;;;5022611;28;20521;-72
2021/12/08 07:50:24;;;;;;;4.55;1.05;;;;;;;;;;5026703;28;20271;-72
2021/12/08 07:52:51;;;;;;;5.35;1.00;;;;;;;;;;5025810;28;20040;-70
2021/12/08 07:55:24;;;;;;;1.73;1.17;;;;;;;;;;5020084;28;20538;-70
2021/12/08 07:57:50;;;;;;;4.97;1.33;;;;;;;;;;5004514;28;20076;-70
2021/12/08 08:00:31;;;;;;;3.67;1.30;;;;;;;;;;5023337;28;20034;-70
2021/12/08 08:02:58;;;;;;;3.33;1.00;;;;;;;;;;5024251;28;20115;-69
2021/12/08 08:05:28;;;;;;;2.78;1.08;;;;;;;;;;5020247;28;20053;-70
2021/12/08 08:07:58;;;;;;;3.58;1.27;;;;;;;;;;5025370;28;20063;-70
2021/12/08 08:10:26;;;;;;;2.03;0.85;;;;;;;;;;5024848;28;20525;-67
2021/12/08 08:12:57;;;;;;;7.25;1.08;;;;;;;;;;5028497;28;20041;-69
2021/12/08 08:15:24;;;;;;;6.28;1.52;;;;;;;;;;5010825;28;20029;-69
2021/12/08 08:17:53;;;;;;;9.93;2.20;;;;;;;;;;5029477;28;20064;-69
2021/12/08 08:20:32;;;;;;;6.28;1.10;;;;;;;;;;5025353;28;20518;-69
2021/12/08 08:22:59;;;;;;;4.13;1.10;;;;;;;;;;5021020;28;20045;-68
2021/12/08 08:25:33;;;;;;;4.45;1.20;;;;;;;;;;5023538;28;20041;-68
2021/12/08 08:27:59;;;;;;;3.88;1.30;;;;;;;;;;5023312;28;20057;-71
2021/12/08 08:30:31;;;;;;;7.45;1.42;;;;;;;;;;5010862;28;20036;-70
2021/12/08 08:32:58;;;;;;;6.72;1.45;;;;;;;;;;5010682;28;20891;-72
2021/12/08 08:35:31;;;;;;;2.90;1.00;;;;;;;;;;5013453;28;20044;-69
2021/12/08 08:38:01;;;;;;;2.70;1.27;;;;;;;;;;5020957;28;20037;-69
2021/12/08 08:40:37;;;;;;;4.47;1.50;;;;;;;;;;5019742;28;20033;-69
2021/12/08 08:43:06;;;;;;;4.60;1.20;;;;;;;;;;5015708;28;20591;-68
2021/12/08 08:45:41;;;;;;;4.45;1.23;;;;;;;;;;5023199;28;20034;-69
2021/12/08 08:48:13;;;;;;;4.80;1.10;;;;;;;;;;5017931;28;20606;-71
2021/12/08 08:50:46;;;;;;;5.43;1.30;;;;;;;;;;5002597;28;20111;-68
2021/12/08 08:53:13;;;;;;;7.40;1.50;;;;;;;;;;5021171;28;20049;-67
2021/12/08 08:55:50;;;;;;;2.40;1.05;;;;;;;;;;5025057;28;20025;-70
2021/12/08 08:58:20;;;;;;;5.80;1.25;;;;;;;;;;5022077;28;20038;-71
2021/12/08 09:00:52;;;;;;;2.33;1.05;;;;;;;;;;5017609;28;20120;-72
2021/12/08 09:03:23;;;;;;;4.95;1.20;;;;;;;;;;4998545;28;20042;-70
2021/12/08 09:05:54;;;;;;;2.42;0.88;;;;;;;;;;5020034;28;20144;-69
2021/12/08 09:08:23;;;;;;;2.78;0.88;;;;;;;;;;5016480;28;20041;-70
2021/12/08 09:10:59;;;;;;;1.33;0.73;;;;;;;;;;5021475;28;20088;-72
2021/12/08 09:13:34;;;;;;;1.75;0.70;;;;;;;;;;5021480;28;20115;-71
2021/12/08 09:16:08;;;;;;;4.63;1.02;;;;;;;;;;5024645;28;20052;-71
2021/12/08 09:18:55;;;;;;;4.40;0.75;;;;;;;;;;5022198;28;20096;-71
2021/12/08 09:21:32;;;;;;;3.85;1.10;;;;;;;;;;5014123;28;20049;-71
2021/12/08 09:24:21;;;;;;;2.13;0.85;;;;;;;;;;5021871;28;20045;-71
2021/12/08 09:26:51;;;;;;;2.65;0.80;;;;;;;;;;5027013;28;20102;-72
2021/12/08 09:29:23;;;;;;;1.63;0.93;;;;;;;;;;5025306;28;20483;-70
2021/12/08 09:32:06;;;;;;;5.80;0.77;;;;;;;;;;5015909;28;20056;-70
2021/12/08 09:34:37;;;;;;;6.68;1.30;;;;;;;;;;5022247;28;20045;-70
2021/12/08 09:37:11;;;;;;;4.63;1.20;;;;;;;;;;5010491;28;20037;-71
2021/12/08 09:39:44;;;;;;;3.33;1.17;;;;;;;;;;5023545;28;20068;-72
2021/12/08 09:42:09;;;;;;;6.30;1.55;;;;;;;;;;5021539;28;20527;-70
2021/12/08 09:44:49;;;;;;;5.30;1.35;;;;;;;;;;5025446;28;20041;-71
2021/12/08 09:47:15;;;;;;;2.42;1.00;;;;;;;;;;5008523;28;20060;-70
2021/12/08 09:49:41;;;;;;;3.78;1.02;;;;;;;;;;5008406;28;20506;-72
2021/12/08 09:52:10;;;;;;;6.75;1.60;;;;;;;;;;5029146;28;20064;-70
2021/12/08 09:54:38;;;;;;;10.00;1.55;;;;;;;;;;5026279;28;20120;-71
2021/12/08 09:57:12;;;;;;;3.35;1.40;;;;;;;;;;5012085;28;20759;-71
2021/12/08 09:59:45;;;;;;;4.28;1.65;;;;;;;;;;5021925;28;20044;-71
2021/12/08 10:02:18;;;;;;;6.18;1.85;;;;;;;;;;5023445;28;20036;-71
2021/12/08 10:04:45;;;;;;;5.88;1.20;;;;;;;;;;5024908;28;20021;-70
2021/12/08 10:07:12;;;;;;;6.45;1.27;;;;;;;;;;5024587;28;20067;-72
2021/12/08 10:09:38;;;;;;;5.85;1.52;;;;;;;;;;5026049;28;20171;-72
2021/12/08 10:12:04;;;;;;;3.80;1.27;;;;;;;;;;5024425;28;20045;-70
2021/12/08 10:14:29;;;;;;;4.80;1.30;;;;;;;;;;5023443;28;20098;-73
2021/12/08 10:16:55;;;;;;;1.75;1.10;;;;;;;;;;5027655;28;20026;-69
2021/12/08 10:19:22;;;;;;;2.67;1.17;;;;;;;;;;5025824;28;20030;-70
2021/12/08 10:21:48;;;;;;;6.13;1.58;;;;;;;;;;5024991;28;20620;-69
2021/12/08 10:24:26;;;;;;;3.45;1.17;;;;;;;;;;5033073;28;20033;-70
2021/12/08 10:26:53;;;;;;;9.07;1.58;;;;;;;;;;5024615;28;20160;-70
2021/12/08 10:29:28;;;;;;;2.38;1.00;;;;;;;;;;5021813;28;20136;-69
2021/12/08 10:31:55;;;;;;;6.22;1.67;;;;;;;;;;5019528;28;20028;-71
2021/12/08 10:34:25;;;;;;;2.97;1.33;;;;;;;;;;5008012;28;20037;-69
2021/12/08 10:36:55;;;;;;;4.97;1.42;;;;;;;;;;5023659;28;20037;-72
2021/12/08 10:39:25;;;;;;;5.05;1.30;;;;;;;;;;5026449;28;20141;-71
2021/12/08 10:41:56;;;;;;;5.13;1.02;;;;;;;;;;5023760;28;20518;-73
2021/12/08 10:44:26;;;;;;;4.30;1.00;;;;;;;;;;5020388;28;20030;-71
2021/12/08 10:46:57;;;;;;;5.60;1.35;;;;;;;;;;5025440;28;20026;-72
2021/12/08 10:54:25;;;;;;;4.20;1.17;;;;;;;;;;5022042;28;20073;-70
2021/12/08 10:54:53;;;;;;;4.30;1.10;;;;;;;;;;5022915;28;20088;-72
2021/12/08 10:57:30;;;;;;;5.07;1.23;;;;;;;;;;5025364;28;20057;-71
2021/12/08 10:59:59;;;;;;;5.88;1.20;;;;;;;;;;5022306;28;20033;-69
2021/12/08 11:03:00;;;;;;;4.40;0.95;;;;;;;;;;5020378;28;20044;-70
2021/12/08 11:05:25;;;;;;;3.70;1.20;;;;;;;;;;4976211;28;20132;-71
2021/12/08 11:08:04;;;;;;;3.58;1.17;;;;;;;;;;5006894;28;20517;-72
2021/12/08 11:10:31;;;;;;;3.63;1.17;;;;;;;;;;5022334;28;20044;-71
2021/12/08 11:12:58;;;;;;;8.68;1.55;;;;;;;;;;5027211;28;20095;-73
2021/12/08 11:15:24;;;;;;;2.78;1.45;;;;;;;;;;5027995;28;20515;-70
2021/12/08 11:18:08;;;;;;;4.63;1.63;;;;;;;;;;5025209;28;20584;-70
2021/12/08 11:20:42;;;;;;;4.78;1.70;;;;;;;;;;5026631;28;20033;-76
2021/12/08 11:23:13;;;;;;;3.25;1.25;;;;;;;;;;5028357;28;20031;-70
2021/12/08 11:25:45;;;;;;;4.80;1.60;;;;;;;;;;5027308;28;20029;-69
2021/12/08 11:28:29;;;;;;;4.50;1.45;;;;;;;;;;5025194;28;20037;-71
2021/12/08 11:31:03;;;;;;;3.15;1.40;;;;;;;;;;5000492;28;20041;-68
2021/12/08 11:33:28;;;;;;;;;;;;;;;;;;5020929;28;20061;-70
2021/12/08 11:36:27;;;;;;;6.70;1.55;;;;;;;;;;5027047;28;20406;-71
2021/12/08 11:38:53;;;;;;;3.40;1.40;;;;;;;;;;4987236;28;20171;-71
2021/12/08 11:41:21;;;;;;;6.75;1.30;;;;;;;;;;5025605;28;20243;-71
2021/12/08 11:43:54;;;;;;;6.38;1.30;;;;;;;;;;5026069;28;20431;-71
2021/12/08 11:46:21;;;;;;;7.18;1.73;;;;;;;;;;5026087;28;20510;-71
2021/12/08 11:48:57;;;;;;;6.85;2.13;;;;;;;;;;5026294;28;20103;-71
2021/12/08 11:51:24;;;;;;;5.45;1.70;;;;;;;;;;5018330;28;20065;-71
2021/12/08 11:53:49;;;;;;;13.10;1.73;;;;;;;;;;5021413;28;20463;-69
2021/12/08 11:56:33;;;;;;;1.73;1.23;;;;;;;;;;5024829;28;20037;-68
2021/12/08 11:58:59;;;;;;;4.28;1.35;;;;;;;;;;5027960;28;20044;-68
2021/12/08 12:01:25;;;;;;;2.08;0.90;;;;;;;;;;5024579;28;20111;-68
2021/12/08 12:03:50;;;;;;;14.65;2.47;;;;;;;;;;5014066;28;21846;-70
2021/12/08 12:06:15;;;;;;;7.88;1.60;;;;;;;;;;5023523;28;20119;-67
2021/12/08 12:08:41;;;;;;;7.32;1.52;;;;;;;;;;5023943;28;20071;-69
2021/12/08 12:11:06;;;;;;;6.57;1.40;;;;;;;;;;5014546;28;20026;-70
2021/12/08 12:13:32;;;;;;;11.02;1.65;;;;;;;;;;5026193;28;20029;-69
2021/12/08 12:15:57;;;;;;;6.30;1.52;;;;;;;;;;5022884;28;20041;-70
2021/12/08 12:18:31;;;;;;;2.78;1.58;;;;;;;;;;5016466;28;20063;-68
2021/12/08 12:21:16;;;;;;;5.03;1.85;;;;;;;;;;5020018;28;20132;-69
2021/12/08 12:23:49;;;;;;;3.85;1.30;;;;;;;;;;5025595;28;20040;-68
2021/12/08 12:26:21;;;;;;;2.20;1.33;;;;;;;;;;5026468;28;20037;-68
2021/12/08 12:28:53;;;;;;;4.72;1.55;;;;;;;;;;5024765;28;20715;-71
2021/12/08 12:31:41;;;;;;;2.30;1.10;;;;;;;;;;5020549;28;20041;-71
2021/12/08 12:34:38;;;;;;;3.72;1.40;;;;;;;;;;5014083;28;20046;-72
2021/12/08 12:37:13;;;;;;;6.30;2.00;;;;;;;;;;5025131;28;20092;-71
2021/12/08 12:39:49;;;;;;;2.55;1.20;;;;;;;;;;5019180;28;20668;-70
2021/12/08 12:42:17;;;;;;;3.50;1.20;;;;;;;;;;5023278;28;20143;-71
2021/12/08 12:44:46;;;;;;;3.55;1.52;;;;;;;;;;5026319;28;20103;-70
2021/12/08 12:47:23;;;;;;;2.08;1.52;;;;;;;;;;5001270;28;20049;-70
2021/12/08 12:50:14;;;;;;;2.25;1.30;;;;;;;;;;5006075;28;20218;-70
2021/12/08 12:52:50;;;;;;;4.45;1.80;;;;;;;;;;4986920;28;20188;-70
2021/12/08 12:55:31;;;;;;;7.03;1.90;;;;;;;;;;5004864;28;20057;-69
2021/12/08 12:58:05;;;;;;;7.63;1.90;;;;;;;;;;5006425;28;20080;-68
2021/12/08 13:00:45;;;;;;;6.28;1.23;;;;;;;;;;4998294;28;20034;-72
2021/12/08 13:03:34;;;;;;;6.75;1.65;;;;;;;;;;5002837;28;20048;-69
2021/12/08 13:06:00;;;;;;;4.93;1.85;;;;;;;;;;4996772;28;20136;-70
2021/12/08 13:08:45;;;;;;;6.28;1.67;;;;;;;;;;5000939;28;20536;-71
2021/12/08 13:11:25;;;;;;;4.00;1.65;;;;;;;;;;4997521;28;20033;-69
2021/12/08 13:13:54;;;;;;;3.42;1.45;;;;;;;;;;5010713;28;20034;-71
2021/12/08 13:16:35;;;;;;;4.82;2.95;;;;;;;;;;5008585;28;20527;-69
2021/12/08 13:19:07;;;;;;;3.45;1.90;;;;;;;;;;5008481;28;20037;-69
2021/12/08 13:21:46;;;;;;;4.15;1.52;;;;;;;;;;5002213;28;20046;-69
2021/12/08 13:24:37;;;;;;;5.18;3.08;;;;;;;;;;4988336;28;20048;-70
2021/12/08 13:27:11;;;;;;;2.42;1.40;;;;;;;;;;4999978;28;20052;-69
2021/12/08 13:29:41;;;;;;;6.35;1.85;;;;;;;;;;5001387;28;20462;-70
2021/12/08 13:32:12;;;;;;;6.30;1.40;;;;;;;;;;5001222;28;20030;-70
2021/12/08 13:35:01;;;;;;;7.68;2.10;;;;;;;;;;4996958;28;20752;-69
2021/12/08 13:37:29;;;;;;;6.03;2.00;;;;;;;;;;4999002;28;20050;-69
2021/12/08 13:40:07;;;;;;;5.43;1.83;;;;;;;;;;5001666;28;20689;-69
2021/12/08 13:42:47;;;;;;;3.63;1.75;;;;;;;;;;4990179;28;20030;-70
2021/12/08 13:45:14;;;;;;;7.13;1.83;;;;;;;;;;5006582;28;20076;-70
2021/12/08 13:47:42;;;;;;;5.28;1.77;;;;;;;;;;5026182;28;20037;-70
2021/12/08 13:50:25;;;;;;;3.47;1.67;;;;;;;;;;5020841;28;20038;-67
2021/12/08 13:53:06;;;;;;;3.65;1.52;;;;;;;;;;5024182;28;20116;-67
2021/12/08 13:55:33;;;;;;;4.82;1.50;;;;;;;;;;5013912;28;20132;-68
2021/12/08 13:58:07;;;;;;;4.68;1.55;;;;;;;;;;5028550;28;20064;-69
2021/12/08 14:00:38;;;;;;;3.70;1.40;;;;;;;;;;5021231;28;20064;-68
2021/12/08 14:03:23;;;;;;;2.60;1.40;;;;;;;;;;5021311;28;20657;-68
2021/12/08 14:05:59;;;;;;;1.95;1.38;;;;;;;;;;5010695;28;20045;-67
2021/12/08 14:08:33;;;;;;;16.80;4.07;;;;;;;;;;5027126;28;20029;-68
2021/12/08 14:11:11;;;;;;;18.42;5.70;;;;;;;;;;5024789;28;20544;-69
2021/12/08 14:13:41;;;;;;;15.50;4.95;;;;;;;;;;5026165;28;20048;-70
2021/12/08 14:16:09;;;;;;;15.52;4.50;;;;;;;;;;5021510;28;20128;-70
2021/12/08 14:18:46;;;;;;;4.05;2.17;;;;;;;;;;5017173;28;20049;-70
2021/12/08 14:21:15;;;;;;;16.80;6.18;;;;;;;;;;5025973;28;20132;-70
2021/12/08 14:23:45;;;;;;;4.68;2.00;;;;;;;;;;5028989;28;20053;-70
2021/12/08 14:26:23;;;;;;;2.33;1.40;;;;;;;;;;5028339;28;20533;-70
2021/12/08 14:28:56;;;;;;;8.52;2.83;;;;;;;;;;5011374;28;20021;-70
2021/12/08 14:31:30;;;;;;;3.45;1.48;;;;;;;;;;5026770;28;20042;-70
2021/12/08 14:34:00;;;;;;;5.05;2.33;;;;;;;;;;5020612;28;20037;-71
2021/12/08 14:37:00;;;;;;;8.40;2.40;;;;;;;;;;5017146;28;20152;-69
2021/12/08 14:39:41;;;;;;;6.43;2.00;;;;;;;;;;5015991;28;20066;-69
2021/12/08 14:42:13;;;;;;;6.40;2.13;;;;;;;;;;5019193;28;20042;-69
2021/12/08 14:44:43;;;;;;;5.70;2.53;;;;;;;;;;5023864;28;20046;-70
2021/12/08 14:47:13;;;;;;;8.48;1.50;;;;;;;;;;5023226;28;20063;-69
2021/12/08 14:49:42;;;;;;;4.88;1.70;;;;;;;;;;5026358;28;20605;-71
2021/12/08 14:52:13;;;;;;;9.30;2.00;;;;;;;;;;5016799;28;20091;-72
2021/12/08 14:54:59;;;;;;;7.75;1.88;;;;;;;;;;5024277;28;20049;-72
2021/12/08 14:57:35;;;;;;;4.55;1.52;;;;;;;;;;5009445;28;20085;-71
2021/12/08 15:00:06;;;;;;;4.82;1.50;;;;;;;;;;5022048;28;20044;-69
2021/12/08 15:02:36;;;;;;;6.65;1.75;;;;;;;;;;5020520;28;20136;-69
2021/12/08 15:05:09;;;;;;;4.07;1.60;;;;;;;;;;5013915;28;20114;-69
2021/12/08 15:07:35;;;;;;;5.70;1.80;;;;;;;;;;5017608;28;20040;-71
2021/12/08 15:10:00;;;;;;;4.45;1.42;;;;;;;;;;5016511;28;20041;-72
2021/12/08 15:12:26;;;;;;;5.60;1.73;;;;;;;;;;5019985;28;20046;-71
2021/12/08 15:14:52;;;;;;;5.70;2.08;;;;;;;;;;5010768;28;20061;-68
2021/12/08 15:17:32;;;;;;;7.05;2.10;;;;;;;;;;5027378;28;20068;-71
2021/12/08 15:19:58;;;;;;;4.50;1.95;;;;;;;;;;5027365;28;20057;-73
2021/12/08 15:22:27;;;;;;;5.53;2.20;;;;;;;;;;5023596;28;20042;-69
2021/12/08 15:25:19;;;;;;;5.00;2.10;;;;;;;;;;5024088;28;20029;-69
2021/12/08 15:27:47;;;;;;;5.13;2.45;;;;;;;;;;5020315;28;20411;-72
2021/12/08 15:30:15;;;;;;;3.17;1.70;;;;;;;;;;5022303;28;20033;-69
2021/12/08 15:32:40;;;;;;;5.38;2.08;;;;;;;;;;5015315;28;21571;-71
2021/12/08 15:35:09;;;;;;;5.25;2.47;;;;;;;;;;5025780;28;20040;-70
2021/12/08 15:37:36;;;;;;;5.05;1.73;;;;;;;;;;5022795;28;20040;-70
2021/12/08 15:40:03;;;;;;;4.03;1.50;;;;;;;;;;5024709;28;20041;-71
2021/12/08 15:42:33;;;;;;;4.82;2.20;;;;;;;;;;5022891;28;20063;-71